sensor_id;sensor_type;location;lat;lon;timestamp;temperature;humidity
10121;DHT22;5100;45.176;5.714;2023-02-07T00:00:13;10.80;53.00
10121;DHT22;5100;45.176;5.714;2023-02-07T00:02:43;10.80;53.00
10121;DHT22;5100;45.176;5.714;2023-02-07T00:05:10;10.80;53.00
10121;DHT22;5100;45.176;5.714;2023-02-07T00:07:36;10.80;53.00
10121;DHT22;5100;45.176;5.714;2023-02-07T00:10:04;10.80;52.90
10121;DHT22;5100;45.176;5.714;2023-02-07T00:12:31;10.80;52.80
10121;DHT22;5100;45.176;5.714;2023-02-07T00:14:57;10.80;52.80
10121;DHT22;5100;45.176;5.714;2023-02-07T00:17:24;10.80;52.80
10121;DHT22;5100;45.176;5.714;2023-02-07T00:19:50;10.80;52.80
10121;DHT22;5100;45.176;5.714;2023-02-07T00:22:16;10.80;52.70
10121;DHT22;5100;45.176;5.714;2023-02-07T00:24:42;10.80;52.50
10121;DHT22;5100;45.176;5.714;2023-02-07T00:27:09;10.80;52.50
10121;DHT22;5100;45.176;5.714;2023-02-07T00:29:36;10.70;52.30
10121;DHT22;5100;45.176;5.714;2023-02-07T00:32:02;10.70;52.30
10121;DHT22;5100;45.176;5.714;2023-02-07T00:34:28;10.70;52.40
10121;DHT22;5100;45.176;5.714;2023-02-07T00:36:56;10.70;52.40
10121;DHT22;5100;45.176;5.714;2023-02-07T00:39:22;10.70;52.20
10121;DHT22;5100;45.176;5.714;2023-02-07T00:41:48;10.70;52.10
10121;DHT22;5100;45.176;5.714;2023-02-07T00:44:15;10.70;52.10
10121;DHT22;5100;45.176;5.714;2023-02-07T00:46:41;10.70;52.00
10121;DHT22;5100;45.176;5.714;2023-02-07T00:49:07;10.70;52.00
10121;DHT22;5100;45.176;5.714;2023-02-07T00:51:33;10.70;52.00
10121;DHT22;5100;45.176;5.714;2023-02-07T00:53:59;10.70;51.90
10121;DHT22;5100;45.176;5.714;2023-02-07T00:56:27;10.70;51.90
10121;DHT22;5100;45.176;5.714;2023-02-07T00:58:54;10.70;51.90
10121;DHT22;5100;45.176;5.714;2023-02-07T01:01:21;10.70;51.80
10121;DHT22;5100;45.176;5.714;2023-02-07T01:03:48;10.70;51.70
10121;DHT22;5100;45.176;5.714;2023-02-07T01:06:14;10.70;51.60
10121;DHT22;5100;45.176;5.714;2023-02-07T01:08:40;10.70;51.70
10121;DHT22;5100;45.176;5.714;2023-02-07T01:11:10;10.60;51.70
10121;DHT22;5100;45.176;5.714;2023-02-07T01:13:36;10.60;51.70
10121;DHT22;5100;45.176;5.714;2023-02-07T01:16:03;10.60;51.50
10121;DHT22;5100;45.176;5.714;2023-02-07T01:18:29;10.60;51.50
10121;DHT22;5100;45.176;5.714;2023-02-07T01:20:56;10.60;51.40
10121;DHT22;5100;45.176;5.714;2023-02-07T01:23:22;10.60;51.40
10121;DHT22;5100;45.176;5.714;2023-02-07T01:25:48;10.60;51.40
10121;DHT22;5100;45.176;5.714;2023-02-07T01:28:14;10.60;51.50
10121;DHT22;5100;45.176;5.714;2023-02-07T01:30:42;10.60;51.70
10121;DHT22;5100;45.176;5.714;2023-02-07T01:33:09;10.60;51.60
10121;DHT22;5100;45.176;5.714;2023-02-07T01:35:36;10.60;51.70
10121;DHT22;5100;45.176;5.714;2023-02-07T01:38:03;10.60;51.60
10121;DHT22;5100;45.176;5.714;2023-02-07T01:40:30;10.60;51.50
10121;DHT22;5100;45.176;5.714;2023-02-07T01:42:57;10.60;51.60
10121;DHT22;5100;45.176;5.714;2023-02-07T01:45:33;10.60;51.60
10121;DHT22;5100;45.176;5.714;2023-02-07T01:48:14;10.60;51.60
10121;DHT22;5100;45.176;5.714;2023-02-07T01:50:47;10.60;51.60
10121;DHT22;5100;45.176;5.714;2023-02-07T01:53:17;10.50;51.60
10121;DHT22;5100;45.176;5.714;2023-02-07T01:55:45;10.60;51.60
10121;DHT22;5100;45.176;5.714;2023-02-07T01:58:16;10.50;51.60
10121;DHT22;5100;45.176;5.714;2023-02-07T02:00:45;10.60;51.70
10121;DHT22;5100;45.176;5.714;2023-02-07T02:03:12;10.60;51.70
10121;DHT22;5100;45.176;5.714;2023-02-07T02:05:38;10.60;51.80
10121;DHT22;5100;45.176;5.714;2023-02-07T02:08:06;10.50;51.90
10121;DHT22;5100;45.176;5.714;2023-02-07T02:13:44;10.50;51.90
10121;DHT22;5100;45.176;5.714;2023-02-07T02:38:28;10.50;52.30
10121;DHT22;5100;45.176;5.714;2023-02-07T02:43:42;10.40;53.00
10121;DHT22;5100;45.176;5.714;2023-02-07T02:46:11;10.40;53.00
10121;DHT22;5100;45.176;5.714;2023-02-07T02:48:40;10.40;53.40
10121;DHT22;5100;45.176;5.714;2023-02-07T02:51:06;10.40;53.40
10121;DHT22;5100;45.176;5.714;2023-02-07T02:53:33;10.40;53.60
10121;DHT22;5100;45.176;5.714;2023-02-07T02:56:03;10.40;53.50
10121;DHT22;5100;45.176;5.714;2023-02-07T03:09:04;10.40;55.70
10121;DHT22;5100;45.176;5.714;2023-02-07T03:11:54;10.40;56.20
10121;DHT22;5100;45.176;5.714;2023-02-07T03:15:03;10.40;56.60
10121;DHT22;5100;45.176;5.714;2023-02-07T03:17:34;10.40;57.30
10121;DHT22;5100;45.176;5.714;2023-02-07T03:20:17;10.40;58.20
10121;DHT22;5100;45.176;5.714;2023-02-07T03:22:45;10.40;58.60
10121;DHT22;5100;45.176;5.714;2023-02-07T03:25:14;10.30;58.80
10121;DHT22;5100;45.176;5.714;2023-02-07T03:27:41;10.30;59.00
10121;DHT22;5100;45.176;5.714;2023-02-07T03:30:11;10.30;59.50
10121;DHT22;5100;45.176;5.714;2023-02-07T03:32:41;10.30;59.70
10121;DHT22;5100;45.176;5.714;2023-02-07T03:37:57;10.30;60.10
10121;DHT22;5100;45.176;5.714;2023-02-07T03:40:29;10.20;60.60
10121;DHT22;5100;45.176;5.714;2023-02-07T03:43:03;10.20;61.10
10121;DHT22;5100;45.176;5.714;2023-02-07T03:45:30;10.20;61.30
10121;DHT22;5100;45.176;5.714;2023-02-07T03:47:57;10.20;62.10
10121;DHT22;5100;45.176;5.714;2023-02-07T03:50:22;10.20;61.80
10121;DHT22;5100;45.176;5.714;2023-02-07T03:52:48;10.10;62.30
10121;DHT22;5100;45.176;5.714;2023-02-07T03:55:15;10.10;62.40
10121;DHT22;5100;45.176;5.714;2023-02-07T03:57:41;10.10;62.50
10121;DHT22;5100;45.176;5.714;2023-02-07T04:00:08;10.10;62.70
10121;DHT22;5100;45.176;5.714;2023-02-07T04:02:38;10.00;62.80
10121;DHT22;5100;45.176;5.714;2023-02-07T04:05:05;10.00;63.20
10121;DHT22;5100;45.176;5.714;2023-02-07T04:07:31;10.00;63.50
10121;DHT22;5100;45.176;5.714;2023-02-07T04:09:57;10.00;63.60
10121;DHT22;5100;45.176;5.714;2023-02-07T04:12:23;9.90;64.30
10121;DHT22;5100;45.176;5.714;2023-02-07T04:14:49;9.90;64.50
10121;DHT22;5100;45.176;5.714;2023-02-07T04:17:15;9.90;64.40
10121;DHT22;5100;45.176;5.714;2023-02-07T04:19:42;9.80;64.70
10121;DHT22;5100;45.176;5.714;2023-02-07T04:22:08;9.80;65.20
10121;DHT22;5100;45.176;5.714;2023-02-07T04:24:35;9.80;65.30
10121;DHT22;5100;45.176;5.714;2023-02-07T04:27:02;9.70;64.80
10121;DHT22;5100;45.176;5.714;2023-02-07T04:29:28;9.70;64.90
10121;DHT22;5100;45.176;5.714;2023-02-07T04:31:54;9.70;65.00
10121;DHT22;5100;45.176;5.714;2023-02-07T04:34:20;9.60;65.20
10121;DHT22;5100;45.176;5.714;2023-02-07T04:36:46;9.60;65.40
10121;DHT22;5100;45.176;5.714;2023-02-07T04:39:12;9.60;65.80
10121;DHT22;5100;45.176;5.714;2023-02-07T04:41:39;9.50;66.00
10121;DHT22;5100;45.176;5.714;2023-02-07T04:44:05;9.50;66.00
10121;DHT22;5100;45.176;5.714;2023-02-07T04:46:31;9.50;66.00
10121;DHT22;5100;45.176;5.714;2023-02-07T04:48:57;9.50;66.30
10121;DHT22;5100;45.176;5.714;2023-02-07T04:51:23;9.50;66.20
10121;DHT22;5100;45.176;5.714;2023-02-07T04:53:49;9.50;66.40
10121;DHT22;5100;45.176;5.714;2023-02-07T04:56:15;9.50;66.10
10121;DHT22;5100;45.176;5.714;2023-02-07T04:58:42;9.40;66.20
10121;DHT22;5100;45.176;5.714;2023-02-07T05:01:08;9.40;66.20
10121;DHT22;5100;45.176;5.714;2023-02-07T05:03:34;9.40;66.20
10121;DHT22;5100;45.176;5.714;2023-02-07T05:06:00;9.40;66.20
10121;DHT22;5100;45.176;5.714;2023-02-07T05:08:26;9.40;66.00
10121;DHT22;5100;45.176;5.714;2023-02-07T05:10:55;9.40;66.10
10121;DHT22;5100;45.176;5.714;2023-02-07T05:13:22;9.40;66.10
10121;DHT22;5100;45.176;5.714;2023-02-07T05:15:48;9.30;66.20
10121;DHT22;5100;45.176;5.714;2023-02-07T05:18:15;9.30;66.20
10121;DHT22;5100;45.176;5.714;2023-02-07T05:20:41;9.30;66.50
10121;DHT22;5100;45.176;5.714;2023-02-07T05:23:07;9.30;66.90
10121;DHT22;5100;45.176;5.714;2023-02-07T05:25:33;9.30;66.80
10121;DHT22;5100;45.176;5.714;2023-02-07T05:27:59;9.30;67.00
10121;DHT22;5100;45.176;5.714;2023-02-07T05:30:25;9.20;67.20
10121;DHT22;5100;45.176;5.714;2023-02-07T05:32:52;9.20;66.90
10121;DHT22;5100;45.176;5.714;2023-02-07T05:35:38;9.20;67.10
10121;DHT22;5100;45.176;5.714;2023-02-07T05:38:08;9.20;66.70
10121;DHT22;5100;45.176;5.714;2023-02-07T05:40:36;9.20;66.60
10121;DHT22;5100;45.176;5.714;2023-02-07T05:43:02;9.20;66.80
10121;DHT22;5100;45.176;5.714;2023-02-07T05:45:29;9.20;66.90
10121;DHT22;5100;45.176;5.714;2023-02-07T05:47:55;9.20;66.80
10121;DHT22;5100;45.176;5.714;2023-02-07T05:50:21;9.20;66.80
10121;DHT22;5100;45.176;5.714;2023-02-07T05:52:48;9.20;66.90
10121;DHT22;5100;45.176;5.714;2023-02-07T05:55:14;9.20;67.20
10121;DHT22;5100;45.176;5.714;2023-02-07T05:57:41;9.20;67.40
10121;DHT22;5100;45.176;5.714;2023-02-07T06:00:10;9.20;67.20
10121;DHT22;5100;45.176;5.714;2023-02-07T06:02:41;9.20;67.50
10121;DHT22;5100;45.176;5.714;2023-02-07T06:05:11;9.10;67.60
10121;DHT22;5100;45.176;5.714;2023-02-07T06:07:38;9.10;67.70
10121;DHT22;5100;45.176;5.714;2023-02-07T06:10:05;9.10;67.40
10121;DHT22;5100;45.176;5.714;2023-02-07T06:12:32;9.10;67.80
10121;DHT22;5100;45.176;5.714;2023-02-07T06:14:58;9.10;68.10
10121;DHT22;5100;45.176;5.714;2023-02-07T06:17:24;9.10;67.70
10121;DHT22;5100;45.176;5.714;2023-02-07T06:19:51;9.10;67.50
10121;DHT22;5100;45.176;5.714;2023-02-07T06:22:17;9.10;67.40
10121;DHT22;5100;45.176;5.714;2023-02-07T06:24:43;9.10;67.50
10121;DHT22;5100;45.176;5.714;2023-02-07T06:27:10;9.10;67.60
10121;DHT22;5100;45.176;5.714;2023-02-07T06:29:36;9.10;67.70
10121;DHT22;5100;45.176;5.714;2023-02-07T06:32:03;9.10;67.50
10121;DHT22;5100;45.176;5.714;2023-02-07T06:34:30;9.10;67.60
10121;DHT22;5100;45.176;5.714;2023-02-07T06:36:56;9.10;67.60
10121;DHT22;5100;45.176;5.714;2023-02-07T06:39:22;9.10;67.70
10121;DHT22;5100;45.176;5.714;2023-02-07T06:41:48;9.10;68.30
10121;DHT22;5100;45.176;5.714;2023-02-07T06:44:14;9.10;68.00
10121;DHT22;5100;45.176;5.714;2023-02-07T06:46:40;9.10;67.80
10121;DHT22;5100;45.176;5.714;2023-02-07T06:49:06;9.10;68.10
10121;DHT22;5100;45.176;5.714;2023-02-07T06:51:33;9.10;67.60
10121;DHT22;5100;45.176;5.714;2023-02-07T06:53:58;9.10;67.50
10121;DHT22;5100;45.176;5.714;2023-02-07T06:56:26;9.10;67.80
10121;DHT22;5100;45.176;5.714;2023-02-07T06:58:52;9.10;67.70
10121;DHT22;5100;45.176;5.714;2023-02-07T07:01:18;9.10;67.70
10121;DHT22;5100;45.176;5.714;2023-02-07T07:03:45;9.10;68.00
10121;DHT22;5100;45.176;5.714;2023-02-07T07:06:12;9.30;67.90
10121;DHT22;5100;45.176;5.714;2023-02-07T07:08:38;9.60;67.10
10121;DHT22;5100;45.176;5.714;2023-02-07T07:11:04;9.80;66.40
10121;DHT22;5100;45.176;5.714;2023-02-07T07:13:30;10.00;65.60
10121;DHT22;5100;45.176;5.714;2023-02-07T07:15:56;10.10;65.20
10121;DHT22;5100;45.176;5.714;2023-02-07T07:18:22;10.10;65.20
10121;DHT22;5100;45.176;5.714;2023-02-07T07:20:53;10.00;65.30
10121;DHT22;5100;45.176;5.714;2023-02-07T07:23:19;10.00;65.40
10121;DHT22;5100;45.176;5.714;2023-02-07T07:25:45;9.90;65.50
10121;DHT22;5100;45.176;5.714;2023-02-07T07:28:11;9.80;65.30
10121;DHT22;5100;45.176;5.714;2023-02-07T07:30:37;9.80;65.40
10121;DHT22;5100;45.176;5.714;2023-02-07T07:33:04;9.70;65.60
10121;DHT22;5100;45.176;5.714;2023-02-07T07:35:30;9.70;65.60
10121;DHT22;5100;45.176;5.714;2023-02-07T07:37:56;9.60;65.50
10121;DHT22;5100;45.176;5.714;2023-02-07T07:40:22;9.60;65.70
10121;DHT22;5100;45.176;5.714;2023-02-07T07:42:48;9.60;65.70
10121;DHT22;5100;45.176;5.714;2023-02-07T07:45:16;9.50;66.20
10121;DHT22;5100;45.176;5.714;2023-02-07T07:47:43;9.50;66.30
10121;DHT22;5100;45.176;5.714;2023-02-07T07:50:09;9.60;66.10
10121;DHT22;5100;45.176;5.714;2023-02-07T07:52:35;9.50;66.00
10121;DHT22;5100;45.176;5.714;2023-02-07T07:55:01;9.60;66.10
10121;DHT22;5100;45.176;5.714;2023-02-07T07:57:28;9.60;66.20
10121;DHT22;5100;45.176;5.714;2023-02-07T07:59:54;9.60;66.20
10121;DHT22;5100;45.176;5.714;2023-02-07T08:02:20;9.60;66.20
10121;DHT22;5100;45.176;5.714;2023-02-07T08:04:47;9.60;67.20
10121;DHT22;5100;45.176;5.714;2023-02-07T08:07:13;9.60;67.20
10121;DHT22;5100;45.176;5.714;2023-02-07T08:09:39;9.70;66.30
10121;DHT22;5100;45.176;5.714;2023-02-07T08:12:06;9.70;66.10
10121;DHT22;5100;45.176;5.714;2023-02-07T08:14:32;9.70;66.10
10121;DHT22;5100;45.176;5.714;2023-02-07T08:16:58;9.70;65.90
10121;DHT22;5100;45.176;5.714;2023-02-07T08:19:24;9.70;66.00
10121;DHT22;5100;45.176;5.714;2023-02-07T08:21:50;9.70;65.90
10121;DHT22;5100;45.176;5.714;2023-02-07T08:24:16;9.70;65.70
10121;DHT22;5100;45.176;5.714;2023-02-07T08:26:43;9.70;65.40
10121;DHT22;5100;45.176;5.714;2023-02-07T08:29:09;9.70;65.50
10121;DHT22;5100;45.176;5.714;2023-02-07T08:31:35;9.60;66.00
10121;DHT22;5100;45.176;5.714;2023-02-07T08:34:02;9.60;65.90
10121;DHT22;5100;45.176;5.714;2023-02-07T08:36:27;9.60;66.00
10121;DHT22;5100;45.176;5.714;2023-02-07T08:38:53;9.60;65.90
10121;DHT22;5100;45.176;5.714;2023-02-07T08:41:20;9.60;65.90
10121;DHT22;5100;45.176;5.714;2023-02-07T08:43:45;9.60;65.90
10121;DHT22;5100;45.176;5.714;2023-02-07T08:46:11;9.60;66.20
10121;DHT22;5100;45.176;5.714;2023-02-07T08:48:38;9.60;66.40
10121;DHT22;5100;45.176;5.714;2023-02-07T08:51:05;9.60;66.10
10121;DHT22;5100;45.176;5.714;2023-02-07T08:53:31;9.60;66.00
10121;DHT22;5100;45.176;5.714;2023-02-07T08:55:57;9.60;65.90
10121;DHT22;5100;45.176;5.714;2023-02-07T08:58:23;9.60;65.60
10121;DHT22;5100;45.176;5.714;2023-02-07T09:00:50;9.60;65.60
10121;DHT22;5100;45.176;5.714;2023-02-07T09:03:16;9.60;65.60
10121;DHT22;5100;45.176;5.714;2023-02-07T09:05:42;9.60;65.40
10121;DHT22;5100;45.176;5.714;2023-02-07T09:08:08;9.60;65.40
10121;DHT22;5100;45.176;5.714;2023-02-07T09:10:34;9.60;65.60
10121;DHT22;5100;45.176;5.714;2023-02-07T09:13:01;9.60;65.90
10121;DHT22;5100;45.176;5.714;2023-02-07T09:15:27;9.60;66.10
10121;DHT22;5100;45.176;5.714;2023-02-07T09:17:53;9.60;66.20
10121;DHT22;5100;45.176;5.714;2023-02-07T09:20:19;9.60;66.40
10121;DHT22;5100;45.176;5.714;2023-02-07T09:22:45;9.60;66.60
10121;DHT22;5100;45.176;5.714;2023-02-07T09:25:30;9.70;66.30
10121;DHT22;5100;45.176;5.714;2023-02-07T09:27:56;9.80;65.60
10121;DHT22;5100;45.176;5.714;2023-02-07T09:30:22;9.80;65.60
10121;DHT22;5100;45.176;5.714;2023-02-07T09:32:49;9.80;65.50
10121;DHT22;5100;45.176;5.714;2023-02-07T09:35:15;9.90;65.30
10121;DHT22;5100;45.176;5.714;2023-02-07T09:37:41;9.90;65.30
10121;DHT22;5100;45.176;5.714;2023-02-07T09:40:11;9.90;65.30
10121;DHT22;5100;45.176;5.714;2023-02-07T09:42:56;10.00;65.20
10121;DHT22;5100;45.176;5.714;2023-02-07T09:45:27;10.00;65.00
10121;DHT22;5100;45.176;5.714;2023-02-07T09:48:02;10.00;64.50
10121;DHT22;5100;45.176;5.714;2023-02-07T09:50:34;10.00;64.40
10121;DHT22;5100;45.176;5.714;2023-02-07T09:54:03;10.00;64.70
10121;DHT22;5100;45.176;5.714;2023-02-07T09:56:05;10.00;64.70
10121;DHT22;5100;45.176;5.714;2023-02-07T09:58:43;10.00;64.90
10121;DHT22;5100;45.176;5.714;2023-02-07T10:01:15;10.00;65.20
10121;DHT22;5100;45.176;5.714;2023-02-07T10:03:54;10.00;65.30
10121;DHT22;5100;45.176;5.714;2023-02-07T10:06:27;10.00;65.30
10121;DHT22;5100;45.176;5.714;2023-02-07T10:08:55;10.00;65.30
10121;DHT22;5100;45.176;5.714;2023-02-07T10:14:23;10.00;65.10
10121;DHT22;5100;45.176;5.714;2023-02-07T10:25:23;9.90;65.60
10121;DHT22;5100;45.176;5.714;2023-02-07T10:30:49;9.90;65.20
10121;DHT22;5100;45.176;5.714;2023-02-07T10:33:19;9.90;65.30
10121;DHT22;5100;45.176;5.714;2023-02-07T10:35:47;9.90;65.00
10121;DHT22;5100;45.176;5.714;2023-02-07T10:40:58;10.10;65.10
10121;DHT22;5100;45.176;5.714;2023-02-07T10:43:33;10.20;64.30
10121;DHT22;5100;45.176;5.714;2023-02-07T10:46:04;10.20;63.70
10121;DHT22;5100;45.176;5.714;2023-02-07T10:48:32;10.20;63.70
10121;DHT22;5100;45.176;5.714;2023-02-07T10:53:50;10.20;62.80
10121;DHT22;5100;45.176;5.714;2023-02-07T10:56:26;10.20;62.80
10121;DHT22;5100;45.176;5.714;2023-02-07T10:58:55;10.20;63.00
10121;DHT22;5100;45.176;5.714;2023-02-07T11:01:26;10.20;62.90
10121;DHT22;5100;45.176;5.714;2023-02-07T11:03:52;10.20;63.30
10121;DHT22;5100;45.176;5.714;2023-02-07T11:11:47;10.20;63.60
10121;DHT22;5100;45.176;5.714;2023-02-07T11:14:16;10.20;63.30
10121;DHT22;5100;45.176;5.714;2023-02-07T11:16:44;10.20;62.90
10121;DHT22;5100;45.176;5.714;2023-02-07T11:19:16;10.20;62.60
10121;DHT22;5100;45.176;5.714;2023-02-07T11:21:47;10.20;62.80
10121;DHT22;5100;45.176;5.714;2023-02-07T11:24:19;10.30;62.80
10121;DHT22;5100;45.176;5.714;2023-02-07T11:29:51;10.30;62.30
10121;DHT22;5100;45.176;5.714;2023-02-07T11:32:18;10.30;61.50
10121;DHT22;5100;45.176;5.714;2023-02-07T11:34:57;10.30;61.30
10121;DHT22;5100;45.176;5.714;2023-02-07T11:42:40;10.30;61.00
10121;DHT22;5100;45.176;5.714;2023-02-07T11:45:13;10.30;60.80
10121;DHT22;5100;45.176;5.714;2023-02-07T11:47:45;10.30;60.40
10121;DHT22;5100;45.176;5.714;2023-02-07T11:50:26;10.40;60.80
10121;DHT22;5100;45.176;5.714;2023-02-07T11:52:58;10.40;61.60
10121;DHT22;5100;45.176;5.714;2023-02-07T11:55:33;10.40;62.00
10121;DHT22;5100;45.176;5.714;2023-02-07T11:58:22;10.40;61.00
10121;DHT22;5100;45.176;5.714;2023-02-07T12:00:54;10.40;61.00
10121;DHT22;5100;45.176;5.714;2023-02-07T12:03:31;10.40;61.40
10121;DHT22;5100;45.176;5.714;2023-02-07T12:06:00;10.50;61.00
10121;DHT22;5100;45.176;5.714;2023-02-07T12:08:32;10.50;60.40
10121;DHT22;5100;45.176;5.714;2023-02-07T12:11:03;10.50;60.30
10121;DHT22;5100;45.176;5.714;2023-02-07T12:16:40;10.50;60.40
10121;DHT22;5100;45.176;5.714;2023-02-07T12:19:18;10.60;59.90
10121;DHT22;5100;45.176;5.714;2023-02-07T12:27:03;10.60;56.50
10121;DHT22;5100;45.176;5.714;2023-02-07T12:29:46;10.60;56.50
10121;DHT22;5100;45.176;5.714;2023-02-07T12:32:20;10.60;56.30
10121;DHT22;5100;45.176;5.714;2023-02-07T12:35:33;10.60;55.30
10121;DHT22;5100;45.176;5.714;2023-02-07T12:38:24;10.70;53.70
10121;DHT22;5100;45.176;5.714;2023-02-07T12:41:07;10.70;52.40
10121;DHT22;5100;45.176;5.714;2023-02-07T12:43:57;10.70;53.00
10121;DHT22;5100;45.176;5.714;2023-02-07T12:49:19;10.70;53.30
10121;DHT22;5100;45.176;5.714;2023-02-07T12:57:47;10.80;52.80
10121;DHT22;5100;45.176;5.714;2023-02-07T13:00:28;10.80;52.40
10121;DHT22;5100;45.176;5.714;2023-02-07T13:05:31;10.80;50.60
10121;DHT22;5100;45.176;5.714;2023-02-07T13:08:10;10.80;50.40
10121;DHT22;5100;45.176;5.714;2023-02-07T13:11:06;10.80;50.70
10121;DHT22;5100;45.176;5.714;2023-02-07T13:13:49;10.90;50.90
10121;DHT22;5100;45.176;5.714;2023-02-07T13:16:37;10.90;50.60
10121;DHT22;5100;45.176;5.714;2023-02-07T13:19:33;10.90;50.50
10121;DHT22;5100;45.176;5.714;2023-02-07T13:22:26;10.90;50.20
10121;DHT22;5100;45.176;5.714;2023-02-07T13:24:54;11.00;49.40
10121;DHT22;5100;45.176;5.714;2023-02-07T13:27:21;11.00;49.20
10121;DHT22;5100;45.176;5.714;2023-02-07T13:29:50;11.00;48.40
10121;DHT22;5100;45.176;5.714;2023-02-07T13:32:22;11.00;48.40
10121;DHT22;5100;45.176;5.714;2023-02-07T13:35:02;11.00;48.30
10121;DHT22;5100;45.176;5.714;2023-02-07T13:41:02;11.10;48.50
10121;DHT22;5100;45.176;5.714;2023-02-07T13:54:41;11.10;45.60
10121;DHT22;5100;45.176;5.714;2023-02-07T13:57:38;11.10;45.10
10121;DHT22;5100;45.176;5.714;2023-02-07T14:01:28;11.20;45.00
10121;DHT22;5100;45.176;5.714;2023-02-07T14:03:31;11.20;44.80
10121;DHT22;5100;45.176;5.714;2023-02-07T14:06:14;11.20;43.80
10121;DHT22;5100;45.176;5.714;2023-02-07T14:08:43;11.20;47.50
10121;DHT22;5100;45.176;5.714;2023-02-07T14:11:29;11.30;48.70
10121;DHT22;5100;45.176;5.714;2023-02-07T14:14:16;11.30;49.70
10121;DHT22;5100;45.176;5.714;2023-02-07T14:16:50;11.30;50.70
10121;DHT22;5100;45.176;5.714;2023-02-07T14:27:40;11.30;48.10
10121;DHT22;5100;45.176;5.714;2023-02-07T14:30:21;11.30;47.30
10121;DHT22;5100;45.176;5.714;2023-02-07T14:38:42;11.30;46.30
10121;DHT22;5100;45.176;5.714;2023-02-07T14:41:13;11.30;46.50
10121;DHT22;5100;45.176;5.714;2023-02-07T14:43:54;11.30;46.70
10121;DHT22;5100;45.176;5.714;2023-02-07T14:46:47;11.30;46.70
10121;DHT22;5100;45.176;5.714;2023-02-07T14:49:29;11.30;46.60
10121;DHT22;5100;45.176;5.714;2023-02-07T14:52:00;11.30;46.40
10121;DHT22;5100;45.176;5.714;2023-02-07T14:57:17;11.40;45.90
10121;DHT22;5100;45.176;5.714;2023-02-07T15:02:36;11.40;45.60
10121;DHT22;5100;45.176;5.714;2023-02-07T15:07:44;11.40;46.70
10121;DHT22;5100;45.176;5.714;2023-02-07T15:10:26;11.40;46.90
10121;DHT22;5100;45.176;5.714;2023-02-07T15:12:54;11.40;47.20
10121;DHT22;5100;45.176;5.714;2023-02-07T15:15:30;11.40;47.80
10121;DHT22;5100;45.176;5.714;2023-02-07T15:18:01;11.40;48.30
10121;DHT22;5100;45.176;5.714;2023-02-07T15:20:35;11.50;48.70
10121;DHT22;5100;45.176;5.714;2023-02-07T15:23:03;11.50;48.80
10121;DHT22;5100;45.176;5.714;2023-02-07T15:25:32;11.50;48.70
10121;DHT22;5100;45.176;5.714;2023-02-07T15:28:00;11.50;48.80
10121;DHT22;5100;45.176;5.714;2023-02-07T15:30:27;11.50;48.60
10121;DHT22;5100;45.176;5.714;2023-02-07T15:32:53;11.50;48.40
10121;DHT22;5100;45.176;5.714;2023-02-07T15:35:25;11.50;48.50
10121;DHT22;5100;45.176;5.714;2023-02-07T15:37:53;11.50;48.60
10121;DHT22;5100;45.176;5.714;2023-02-07T15:40:22;11.50;48.70
10121;DHT22;5100;45.176;5.714;2023-02-07T15:42:56;11.50;48.90
10121;DHT22;5100;45.176;5.714;2023-02-07T15:45:28;11.50;49.20
10121;DHT22;5100;45.176;5.714;2023-02-07T15:50:23;11.50;49.50
10121;DHT22;5100;45.176;5.714;2023-02-07T15:52:53;11.50;49.80
10121;DHT22;5100;45.176;5.714;2023-02-07T15:55:44;11.40;50.00
10121;DHT22;5100;45.176;5.714;2023-02-07T16:00:43;11.40;50.30
10121;DHT22;5100;45.176;5.714;2023-02-07T16:03:15;11.40;50.40
10121;DHT22;5100;45.176;5.714;2023-02-07T16:05:42;11.40;50.50
10121;DHT22;5100;45.176;5.714;2023-02-07T16:08:35;11.40;50.50
10121;DHT22;5100;45.176;5.714;2023-02-07T16:16:25;11.30;50.60
10121;DHT22;5100;45.176;5.714;2023-02-07T16:19:14;11.30;50.70
10121;DHT22;5100;45.176;5.714;2023-02-07T16:21:45;11.30;50.70
10121;DHT22;5100;45.176;5.714;2023-02-07T16:24:18;11.30;50.80
10121;DHT22;5100;45.176;5.714;2023-02-07T16:26:45;11.30;50.70
10121;DHT22;5100;45.176;5.714;2023-02-07T16:29:20;11.30;50.70
10121;DHT22;5100;45.176;5.714;2023-02-07T16:31:47;11.30;50.90
10121;DHT22;5100;45.176;5.714;2023-02-07T16:34:15;11.30;50.70
10121;DHT22;5100;45.176;5.714;2023-02-07T16:36:42;11.30;50.80
10121;DHT22;5100;45.176;5.714;2023-02-07T16:39:09;11.30;50.60
10121;DHT22;5100;45.176;5.714;2023-02-07T16:41:39;11.30;50.70
10121;DHT22;5100;45.176;5.714;2023-02-07T16:44:24;11.20;50.60
10121;DHT22;5100;45.176;5.714;2023-02-07T16:46:51;11.20;50.50
10121;DHT22;5100;45.176;5.714;2023-02-07T16:49:21;11.20;50.50
10121;DHT22;5100;45.176;5.714;2023-02-07T16:51:47;11.20;50.60
10121;DHT22;5100;45.176;5.714;2023-02-07T16:54:14;11.20;50.80
10121;DHT22;5100;45.176;5.714;2023-02-07T16:56:42;11.20;50.80
10121;DHT22;5100;45.176;5.714;2023-02-07T16:59:13;11.20;50.90
10121;DHT22;5100;45.176;5.714;2023-02-07T17:01:40;11.20;51.00
10121;DHT22;5100;45.176;5.714;2023-02-07T17:04:06;11.20;51.10
10121;DHT22;5100;45.176;5.714;2023-02-07T17:06:32;11.20;51.20
10121;DHT22;5100;45.176;5.714;2023-02-07T17:08:58;11.20;51.30
10121;DHT22;5100;45.176;5.714;2023-02-07T17:11:25;11.10;51.30
10121;DHT22;5100;45.176;5.714;2023-02-07T17:13:55;11.10;51.40
10121;DHT22;5100;45.176;5.714;2023-02-07T17:16:23;11.10;51.40
10121;DHT22;5100;45.176;5.714;2023-02-07T17:18:49;11.10;51.70
10121;DHT22;5100;45.176;5.714;2023-02-07T17:21:15;11.10;51.90
10121;DHT22;5100;45.176;5.714;2023-02-07T17:23:42;11.10;52.00
10121;DHT22;5100;45.176;5.714;2023-02-07T17:26:27;11.10;52.00
10121;DHT22;5100;45.176;5.714;2023-02-07T17:28:57;11.10;52.00
10121;DHT22;5100;45.176;5.714;2023-02-07T17:31:23;11.10;52.20
10121;DHT22;5100;45.176;5.714;2023-02-07T17:33:49;11.10;52.40
10121;DHT22;5100;45.176;5.714;2023-02-07T17:36:19;11.10;52.50
10121;DHT22;5100;45.176;5.714;2023-02-07T17:38:45;11.10;52.50
10121;DHT22;5100;45.176;5.714;2023-02-07T17:41:12;11.00;52.50
10121;DHT22;5100;45.176;5.714;2023-02-07T17:43:39;11.00;52.50
10121;DHT22;5100;45.176;5.714;2023-02-07T17:46:17;11.00;52.50
10121;DHT22;5100;45.176;5.714;2023-02-07T17:48:45;11.00;52.50
10121;DHT22;5100;45.176;5.714;2023-02-07T17:51:16;11.00;52.50
10121;DHT22;5100;45.176;5.714;2023-02-07T17:53:43;11.00;52.30
10121;DHT22;5100;45.176;5.714;2023-02-07T17:56:19;11.00;52.30
10121;DHT22;5100;45.176;5.714;2023-02-07T17:58:46;11.00;52.10
10121;DHT22;5100;45.176;5.714;2023-02-07T18:01:12;11.00;51.90
10121;DHT22;5100;45.176;5.714;2023-02-07T18:03:40;11.00;51.60
10121;DHT22;5100;45.176;5.714;2023-02-07T18:06:10;11.00;51.50
10121;DHT22;5100;45.176;5.714;2023-02-07T18:08:37;11.00;51.50
10121;DHT22;5100;45.176;5.714;2023-02-07T18:11:03;11.00;51.50
10121;DHT22;5100;45.176;5.714;2023-02-07T18:13:32;11.00;51.40
10121;DHT22;5100;45.176;5.714;2023-02-07T18:15:58;11.00;51.20
10121;DHT22;5100;45.176;5.714;2023-02-07T18:18:25;11.00;51.20
10121;DHT22;5100;45.176;5.714;2023-02-07T18:20:51;11.00;51.20
10121;DHT22;5100;45.176;5.714;2023-02-07T18:23:17;11.00;51.30
10121;DHT22;5100;45.176;5.714;2023-02-07T18:25:49;11.00;51.40
10121;DHT22;5100;45.176;5.714;2023-02-07T18:28:15;10.90;51.40
10121;DHT22;5100;45.176;5.714;2023-02-07T18:30:43;10.90;51.50